Rosaria Lauro — IXXO — position and weather

sailwx.info

Track history (hours):
 
Tides and Currents Weather Stations Pressure Air Temp Water Temp Dewpoint Dewpoint Depression Visibility Wind Speed Wind Dir Waves Ship Positions

Rosaria Lauro

Last reported at 2015-Jul-02 04:33 UTC. Time now 2015-Jul-02 05:21 UTC.
Position N 40°45' E 013°56'.

Length 40 m; draft 1.1 m.

Type: Passenger vessel. MMSI: 247055900.

Date/timePositionNaut miles runAvg speedWind from/ knotsBaromVisibWave heightAir tempDewpointWater temp
2015-Jul-02 04:33N 40°45' E 013°56'0 0.0
2015-Jul-01 19:11N 40°45' E 013°56'1623.6
2015-Jul-01 18:30N 40°49' E 014°17'7 7.4
2015-Jul-01 17:34N 40°47' E 014°08'9 8.9
2015-Jul-01 16:34N 40°45' E 013°56'1818.0
2015-Jul-01 15:33N 40°33' E 014°14'1 0.3
2015-Jul-01 12:25N 40°32' E 014°15'0 0.1
2015-Jul-01 11:31N 40°32' E 014°15'0 0.0
2015-Jul-01 10:33N 40°32' E 014°15'0 0.0
2015-Jul-01 09:33N 40°32' E 014°15'1 1.0
2015-Jul-01 08:33N 40°33' E 014°14'1817.5
2015-Jul-01 07:33N 40°45' E 013°56'4 3.7
2015-Jul-01 06:34N 40°44' E 013°52'4 0.3
2015-Jun-30 19:20N 40°45' E 013°56'1618.3
2015-Jun-30 18:29N 40°49' E 014°16'7 7.5
2015-Jun-30 17:33N 40°47' E 014°08'9 8.7
2015-Jun-30 16:33N 40°45' E 013°56'1614.9
2015-Jun-30 15:28N 40°49' E 014°17'1010.6
2015-Jun-30 14:34N 40°46' E 014°05'10 7.6
2015-Jun-30 13:14N 40°44' E 013°52'0 0.0
2015-Jun-30 12:33N 40°44' E 013°52'10 9.8
2015-Jun-30 11:33N 40°46' E 014°04'1010.1
2015-Jun-30 10:33N 40°49' E 014°17'1616.3
2015-Jun-30 09:33N 40°45' E 013°57'0 0.4
2015-Jun-30 08:33N 40°45' E 013°56'16 6.5
2015-Jun-30 06:03N 40°50' E 014°17'1122.7
2015-Jun-30 05:34N 40°46' E 014°03'9 8.6
2015-Jun-30 04:33N 40°44' E 013°52'4 0.4
2015-Jun-29 19:30N 40°45' E 013°56'1613.3
2015-Jun-29 18:18N 40°50' E 014°16'912.9
2015-Jun-29 17:34N 40°46' E 014°05'8 7.9
2015-Jun-29 16:33N 40°46' E 013°54'1716.3
2015-Jun-29 15:31N 40°50' E 014°16'1920.1
2015-Jun-29 14:33N 40°44' E 013°51'4 3.7
2015-Jun-29 13:33N 40°45' E 013°56'16 5.3
2015-Jun-29 10:31N 40°50' E 014°17'1616.7
2015-Jun-29 09:33N 40°45' E 013°56'0 0.0
2015-Jun-29 08:33N 40°45' E 013°56'12 4.2
2015-Jun-29 05:33N 40°47' E 014°12'1616.0
2015-Jun-29 04:33N 40°44' E 013°52'0 0.0
2015-Jun-28 19:21N 40°44' E 013°52'1822.0
2015-Jun-28 18:33N 40°48' E 014°14'9 8.8
2015-Jun-28 17:34N 40°45' E 014°04'6 5.9
2015-Jun-28 16:34N 40°45' E 013°56'1615.4
2015-Jun-28 15:30N 40°50' E 014°16'1920.4
2015-Jun-28 14:34N 40°45' E 013°51'4 4.2
2015-Jun-28 13:34N 40°45' E 013°57'1611.1
2015-Jun-28 12:09N 40°50' E 014°17'1423.3
2015-Jun-28 11:34N 40°44' E 014°00'7 6.5
2015-Jun-28 10:33N 40°44' E 013°52'7 7.1
2015-Jun-28 09:33N 40°44' E 014°01'13 6.3
2015-Jun-28 07:28N 40°50' E 014°17'1617.9
2015-Jun-28 06:33N 40°45' E 013°56'0 0.1
2015-Jun-28 05:33N 40°45' E 013°56'0 0.0
2015-Jun-27 19:24N 40°45' E 013°56'1618.2
2015-Jun-27 18:31N 40°49' E 014°17'8 7.9
2015-Jun-27 17:33N 40°46' E 014°07'1 1.1
2015-Jun-27 16:33N 40°46' E 014°09'7 6.9
2015-Jun-27 15:33N 40°50' E 014°16'1616.0
2015-Jun-27 14:33N 40°45' E 013°56'1611.0
2015-Jun-27 13:06N 40°50' E 014°16'815.0
2015-Jun-27 12:33N 40°46' E 014°07'2 2.2
2015-Jun-27 11:33N 40°45' E 014°05'10 8.5
2015-Jun-27 10:20N 40°50' E 014°17'1722.3
2015-Jun-27 09:33N 40°46' E 013°55'7 7.1
2015-Jun-27 08:33N 40°45' E 014°04'11 9.6
2015-Jun-27 07:25N 40°50' E 014°17'1618.7
2015-Jun-27 06:33N 40°45' E 013°56'8 0.7
2015-Jun-26 18:32N 40°46' E 014°07'6 5.8
2015-Jun-26 17:33N 40°48' E 014°14'1817.6
2015-Jun-26 16:33N 40°45' E 013°52'10 5.0
2015-Jun-26 14:33N 40°46' E 014°05'10 9.2
2015-Jun-26 13:27N 40°44' E 013°52'0 0.0
2015-Jun-26 12:33N 40°44' E 013°52'6 5.9
2015-Jun-26 11:33N 40°46' E 013°59'1413.5
2015-Jun-26 10:31N 40°49' E 014°17'1617.1
2015-Jun-26 09:33N 40°45' E 013°56'0 0.0
2015-Jun-26 08:33N 40°45' E 013°56'16 6.3
2015-Jun-26 06:04N 40°50' E 014°16'1019.2
2015-Jun-26 05:34N 40°46' E 014°04'10 9.7
2015-Jun-26 04:34N 40°44' E 013°51'4 3.8
2015-Jun-26 03:34N 40°45' E 013°56'0 0.0
2015-Jun-25 19:33N 40°45' E 013°56'  
2015-Jun-22 14:33N 40°46' E 014°04'1010.0
2015-Jun-22 13:33N 40°44' E 013°52'0 0.0
2015-Jun-22 12:24N 40°44' E 013°52'910.4
2015-Jun-22 11:34N 40°46' E 014°03'11 9.8
2015-Jun-22 10:27N 40°49' E 014°17'1617.7
2015-Jun-22 09:34N 40°45' E 013°56'0 0.0
2015-Jun-22 08:34N 40°45' E 013°56'1614.7
2015-Jun-22 07:27N 40°50' E 014°17'2 2.1
2015-Jun-22 06:27N 40°49' E 014°14'7 8.1
2015-Jun-22 05:33N 40°46' E 014°05'1110.6
2015-Jun-22 04:33N 40°44' E 013°52'  
Track history (hours):
 
Tides and Currents Weather Stations Pressure Air Temp Water Temp Dewpoint Dewpoint Depression Visibility Wind Speed Wind Dir Waves Ship Positions

Rosaria Lauro

Last reported at 2015-Jul-02 04:33 UTC. Time now 2015-Jul-02 05:21 UTC.
Position N 40°45' E 013°56'.

Length 40 m; draft 1.1 m.

Type: Passenger vessel. MMSI: 247055900.

Date/timePositionNaut miles runAvg speedWind from/ knotsBaromVisibWave heightAir tempDewpointWater temp
2015-Jul-02 04:33N 40°45' E 013°56'0 0.0
2015-Jul-01 19:11N 40°45' E 013°56'1623.6
2015-Jul-01 18:30N 40°49' E 014°17'7 7.4
2015-Jul-01 17:34N 40°47' E 014°08'9 8.9
2015-Jul-01 16:34N 40°45' E 013°56'1818.0
2015-Jul-01 15:33N 40°33' E 014°14'1 0.3
2015-Jul-01 12:25N 40°32' E 014°15'0 0.1
2015-Jul-01 11:31N 40°32' E 014°15'0 0.0
2015-Jul-01 10:33N 40°32' E 014°15'0 0.0
2015-Jul-01 09:33N 40°32' E 014°15'1 1.0
2015-Jul-01 08:33N 40°33' E 014°14'1817.5
2015-Jul-01 07:33N 40°45' E 013°56'4 3.7
2015-Jul-01 06:34N 40°44' E 013°52'4 0.3
2015-Jun-30 19:20N 40°45' E 013°56'1618.3
2015-Jun-30 18:29N 40°49' E 014°16'7 7.5
2015-Jun-30 17:33N 40°47' E 014°08'9 8.7
2015-Jun-30 16:33N 40°45' E 013°56'1614.9
2015-Jun-30 15:28N 40°49' E 014°17'1010.6
2015-Jun-30 14:34N 40°46' E 014°05'10 7.6
2015-Jun-30 13:14N 40°44' E 013°52'0 0.0
2015-Jun-30 12:33N 40°44' E 013°52'10 9.8
2015-Jun-30 11:33N 40°46' E 014°04'1010.1
2015-Jun-30 10:33N 40°49' E 014°17'1616.3
2015-Jun-30 09:33N 40°45' E 013°57'0 0.4
2015-Jun-30 08:33N 40°45' E 013°56'16 6.5
2015-Jun-30 06:03N 40°50' E 014°17'1122.7
2015-Jun-30 05:34N 40°46' E 014°03'9 8.6
2015-Jun-30 04:33N 40°44' E 013°52'4 0.4
2015-Jun-29 19:30N 40°45' E 013°56'1613.3
2015-Jun-29 18:18N 40°50' E 014°16'912.9
2015-Jun-29 17:34N 40°46' E 014°05'8 7.9
2015-Jun-29 16:33N 40°46' E 013°54'1716.3
2015-Jun-29 15:31N 40°50' E 014°16'1920.1
2015-Jun-29 14:33N 40°44' E 013°51'4 3.7
2015-Jun-29 13:33N 40°45' E 013°56'16 5.3
2015-Jun-29 10:31N 40°50' E 014°17'1616.7
2015-Jun-29 09:33N 40°45' E 013°56'0 0.0
2015-Jun-29 08:33N 40°45' E 013°56'12 4.2
2015-Jun-29 05:33N 40°47' E 014°12'1616.0
2015-Jun-29 04:33N 40°44' E 013°52'0 0.0
2015-Jun-28 19:21N 40°44' E 013°52'1822.0
2015-Jun-28 18:33N 40°48' E 014°14'9 8.8
2015-Jun-28 17:34N 40°45' E 014°04'6 5.9
2015-Jun-28 16:34N 40°45' E 013°56'1615.4
2015-Jun-28 15:30N 40°50' E 014°16'1920.4
2015-Jun-28 14:34N 40°45' E 013°51'4 4.2
2015-Jun-28 13:34N 40°45' E 013°57'1611.1
2015-Jun-28 12:09N 40°50' E 014°17'1423.3
2015-Jun-28 11:34N 40°44' E 014°00'7 6.5
2015-Jun-28 10:33N 40°44' E 013°52'7 7.1
2015-Jun-28 09:33N 40°44' E 014°01'13 6.3
2015-Jun-28 07:28N 40°50' E 014°17'1617.9
2015-Jun-28 06:33N 40°45' E 013°56'0 0.1
2015-Jun-28 05:33N 40°45' E 013°56'0 0.0
2015-Jun-27 19:24N 40°45' E 013°56'1618.2
2015-Jun-27 18:31N 40°49' E 014°17'8 7.9
2015-Jun-27 17:33N 40°46' E 014°07'1 1.1
2015-Jun-27 16:33N 40°46' E 014°09'7 6.9
2015-Jun-27 15:33N 40°50' E 014°16'1616.0
2015-Jun-27 14:33N 40°45' E 013°56'1611.0
2015-Jun-27 13:06N 40°50' E 014°16'815.0
2015-Jun-27 12:33N 40°46' E 014°07'2 2.2
2015-Jun-27 11:33N 40°45' E 014°05'10 8.5
2015-Jun-27 10:20N 40°50' E 014°17'1722.3
2015-Jun-27 09:33N 40°46' E 013°55'7 7.1
2015-Jun-27 08:33N 40°45' E 014°04'11 9.6
2015-Jun-27 07:25N 40°50' E 014°17'1618.7
2015-Jun-27 06:33N 40°45' E 013°56'8 0.7
2015-Jun-26 18:32N 40°46' E 014°07'6 5.8
2015-Jun-26 17:33N 40°48' E 014°14'1817.6
2015-Jun-26 16:33N 40°45' E 013°52'10 5.0
2015-Jun-26 14:33N 40°46' E 014°05'10 9.2
2015-Jun-26 13:27N 40°44' E 013°52'0 0.0
2015-Jun-26 12:33N 40°44' E 013°52'6 5.9
2015-Jun-26 11:33N 40°46' E 013°59'1413.5
2015-Jun-26 10:31N 40°49' E 014°17'1617.1
2015-Jun-26 09:33N 40°45' E 013°56'0 0.0
2015-Jun-26 08:33N 40°45' E 013°56'16 6.3
2015-Jun-26 06:04N 40°50' E 014°16'1019.2
2015-Jun-26 05:34N 40°46' E 014°04'10 9.7
2015-Jun-26 04:34N 40°44' E 013°51'4 3.8
2015-Jun-26 03:34N 40°45' E 013°56'0 0.0
2015-Jun-25 19:33N 40°45' E 013°56'  
2015-Jun-22 14:33N 40°46' E 014°04'1010.0
2015-Jun-22 13:33N 40°44' E 013°52'0 0.0
2015-Jun-22 12:24N 40°44' E 013°52'910.4
2015-Jun-22 11:34N 40°46' E 014°03'11 9.8
2015-Jun-22 10:27N 40°49' E 014°17'1617.7
2015-Jun-22 09:34N 40°45' E 013°56'0 0.0
2015-Jun-22 08:34N 40°45' E 013°56'1614.7
2015-Jun-22 07:27N 40°50' E 014°17'2 2.1
2015-Jun-22 06:27N 40°49' E 014°14'7 8.1
2015-Jun-22 05:33N 40°46' E 014°05'1110.6
2015-Jun-22 04:33N 40°44' E 013°52'  

Dump ship's entire track history